Time;durP1;ratioP1;P1;durP2;ratioP2;P2;SDS_P1;SDS_P2;PMS_P1;PMS_P2;Temp;Humidity;BMP_temperature;BMP_pressure;BME280_temperature;BME280_humidity;BME280_pressure;Samples;Min_cycle;Max_cycle;Signal;HPM_P1;HPM_P2
2023/02/27 00:01:11;;;;;;;8.75;3.15;;;0.90;99.90;;;;;;5017921;28;20448;-73
2023/02/27 00:03:37;;;;;;;6.60;2.97;;;0.90;99.90;;;;;;5012420;28;20030;-73
2023/02/27 00:06:03;;;;;;;9.93;3.03;;;0.80;99.90;;;;;;5014893;28;20029;-73
2023/02/27 00:08:28;;;;;;;9.95;3.30;;;0.90;99.90;;;;;;5014718;28;20068;-73
2023/02/27 00:10:54;;;;;;;7.82;3.55;;;0.90;99.90;;;;;;5015886;28;20485;-73
2023/02/27 00:13:20;;;;;;;9.27;3.67;;;0.90;99.90;;;;;;5014810;28;20025;-73
2023/02/27 00:15:46;;;;;;;9.85;3.22;;;0.90;99.90;;;;;;5014572;28;20124;-72
2023/02/27 00:18:12;;;;;;;5.47;2.90;;;0.90;99.90;;;;;;5014838;28;20025;-73
2023/02/27 00:20:38;;;;;;;5.60;3.05;;;0.80;99.90;;;;;;5012275;28;20028;-74
2023/02/27 00:23:05;;;;;;;7.15;3.50;;;0.80;99.90;;;;;;5015013;28;20041;-74
2023/02/27 00:25:32;;;;;;;8.18;3.30;;;0.80;99.90;;;;;;5016003;28;20091;-73
2023/02/27 00:27:58;;;;;;;8.55;3.22;;;0.80;99.90;;;;;;5014563;28;20993;-73
2023/02/27 00:30:25;;;;;;;6.95;3.22;;;0.80;99.90;;;;;;5015634;28;20037;-71
2023/02/27 00:32:54;;;;;;;9.10;3.00;;;0.70;99.90;;;;;;5014576;28;20624;-71
2023/02/27 00:35:19;;;;;;;8.13;3.05;;;0.80;99.90;;;;;;5015163;28;20137;-74
2023/02/27 00:37:45;;;;;;;8.15;3.10;;;0.70;99.90;;;;;;5016046;28;20144;-73
2023/02/27 00:40:12;;;;;;;5.43;2.80;;;0.70;99.90;;;;;;5014644;28;20029;-74
2023/02/27 00:42:37;;;;;;;5.47;2.90;;;0.70;99.90;;;;;;4998968;28;20030;-73
2023/02/27 00:45:04;;;;;;;8.43;3.53;;;0.70;99.90;;;;;;5018314;28;20029;-73
2023/02/27 00:47:31;;;;;;;5.68;2.90;;;0.70;99.90;;;;;;5014821;28;20040;-71
2023/02/27 00:49:57;;;;;;;9.23;4.10;;;0.70;99.90;;;;;;5016098;28;20053;-71
2023/02/27 00:52:23;;;;;;;9.93;4.05;;;0.70;99.90;;;;;;5010517;28;20052;-71
2023/02/27 00:54:49;;;;;;;7.60;3.67;;;0.60;99.90;;;;;;5010561;28;20485;-71
2023/02/27 00:57:15;;;;;;;8.98;3.25;;;0.60;99.90;;;;;;4997197;28;20475;-71
2023/02/27 00:59:40;;;;;;;12.73;3.70;;;0.60;99.90;;;;;;5015482;28;20033;-72
2023/02/27 01:02:09;;;;;;;9.93;3.63;;;0.60;99.90;;;;;;5003651;28;20061;-71
2023/02/27 01:04:35;;;;;;;6.72;3.10;;;0.60;99.90;;;;;;5019799;28;20460;-73
2023/02/27 01:07:02;;;;;;;11.50;3.10;;;0.60;99.90;;;;;;5012246;28;20026;-74
2023/02/27 01:09:27;;;;;;;11.88;2.97;;;0.60;99.90;;;;;;5013831;28;20091;-73
2023/02/27 01:11:53;;;;;;;5.53;3.03;;;0.60;99.90;;;;;;5015912;28;20458;-73
2023/02/27 01:14:19;;;;;;;9.25;3.45;;;0.60;99.90;;;;;;5020679;28;20029;-74
2023/02/27 01:16:45;;;;;;;9.55;3.10;;;0.60;99.90;;;;;;5011872;28;20026;-73
2023/02/27 01:19:10;;;;;;;7.90;3.67;;;0.60;99.90;;;;;;5015289;28;20025;-73
2023/02/27 01:21:36;;;;;;;9.18;3.08;;;0.50;99.90;;;;;;4993974;28;20034;-73
2023/02/27 01:24:02;;;;;;;11.18;3.20;;;0.50;99.90;;;;;;5015770;28;20464;-73
2023/02/27 01:26:28;;;;;;;11.27;3.58;;;0.50;99.90;;;;;;5013521;28;20457;-73
2023/02/27 01:28:53;;;;;;;9.35;3.65;;;0.50;99.90;;;;;;5020944;28;20040;-73
2023/02/27 01:31:19;;;;;;;9.57;3.70;;;0.50;99.90;;;;;;5018281;28;20482;-74
2023/02/27 01:33:45;;;;;;;5.15;2.92;;;0.50;99.90;;;;;;5019348;28;20643;-74
2023/02/27 01:36:10;;;;;;;8.35;3.45;;;0.50;99.90;;;;;;5016969;28;20022;-73
2023/02/27 01:38:36;;;;;;;5.30;2.80;;;0.50;99.90;;;;;;5003230;28;20504;-73
2023/02/27 01:41:03;;;;;;;9.90;3.22;;;0.50;99.90;;;;;;5020475;28;20042;-74
2023/02/27 01:43:29;;;;;;;7.10;3.28;;;0.50;99.90;;;;;;5018403;28;20416;-74
2023/02/27 01:45:54;;;;;;;9.55;3.53;;;0.50;99.90;;;;;;5016343;28;20033;-74
2023/02/27 01:48:25;;;;;;;8.50;3.13;;;0.50;99.90;;;;;;5019797;28;20022;-74
2023/02/27 01:50:57;;;;;;;9.43;3.78;;;0.50;99.90;;;;;;5017634;28;20029;-74
2023/02/27 01:53:25;;;;;;;7.22;3.40;;;0.50;99.90;;;;;;5020439;28;20028;-73
2023/02/27 01:55:54;;;;;;;9.40;3.75;;;0.50;99.90;;;;;;5016157;28;20489;-72
2023/02/27 01:58:21;;;;;;;6.35;3.35;;;0.40;99.90;;;;;;5020430;28;20117;-71
2023/02/27 02:00:47;;;;;;;6.30;3.28;;;0.40;99.90;;;;;;5016851;28;20029;-72
2023/02/27 02:03:30;;;;;;;8.80;3.47;;;0.40;99.90;;;;;;4999643;28;20529;-72
2023/02/27 02:05:58;;;;;;;6.07;3.20;;;0.40;99.90;;;;;;5017362;28;20037;-71
2023/02/27 02:08:27;;;;;;;18.02;3.55;;;0.40;99.90;;;;;;5018490;28;20021;-72
2023/02/27 02:10:54;;;;;;;7.40;3.22;;;0.40;99.90;;;;;;5017363;28;20025;-72
2023/02/27 02:13:21;;;;;;;13.25;3.67;;;0.40;99.90;;;;;;5016995;28;20030;-71
2023/02/27 02:16:12;;;;;;;11.90;3.55;;;0.40;99.90;;;;;;5016572;28;20576;-72
2023/02/27 02:19:02;;;;;;;6.55;3.38;;;0.40;99.90;;;;;;4978750;28;20038;-71
2023/02/27 02:21:42;;;;;;;6.20;3.75;;;0.40;99.90;;;;;;5018316;28;20033;-73
2023/02/27 02:24:32;;;;;;;13.77;4.30;;;0.30;99.90;;;;;;5016962;28;20060;-72
2023/02/27 02:27:00;;;;;;;9.32;4.10;;;0.30;99.90;;;;;;5018546;28;20038;-71
2023/02/27 02:29:41;;;;;;;8.55;3.80;;;0.30;99.90;;;;;;5015755;28;20045;-73
2023/02/27 02:32:27;;;;;;;10.52;4.20;;;0.30;99.90;;;;;;5015373;28;20096;-72
2023/02/27 02:35:07;;;;;;;6.45;3.17;;;0.30;99.90;;;;;;5016176;28;20476;-72
2023/02/27 02:37:55;;;;;;;7.65;3.15;;;0.30;99.90;;;;;;5022344;28;20040;-72
2023/02/27 02:40:52;;;;;;;7.90;3.33;;;0.30;99.90;;;;;;5016278;28;20506;-72
2023/02/27 02:43:36;;;;;;;7.28;3.33;;;0.30;99.90;;;;;;5014580;28;20075;-74
2023/02/27 02:46:13;;;;;;;8.15;3.45;;;0.30;99.90;;;;;;5019544;28;20503;-75
2023/02/27 02:49:15;;;;;;;5.82;3.08;;;0.30;99.90;;;;;;5005999;28;20076;-74
2023/02/27 02:51:52;;;;;;;8.25;3.35;;;0.30;99.90;;;;;;5018915;28;20121;-74
2023/02/27 02:54:43;;;;;;;7.50;3.47;;;0.20;99.90;;;;;;5018540;28;20032;-74
2023/02/27 02:57:37;;;;;;;9.77;3.45;;;0.30;99.90;;;;;;5006751;28;20030;-74
2023/02/27 03:00:29;;;;;;;11.05;3.40;;;0.30;99.90;;;;;;5017010;28;20834;-74
2023/02/27 03:03:01;;;;;;;8.80;3.47;;;0.30;99.90;;;;;;5012691;28;20041;-74
2023/02/27 03:05:43;;;;;;;11.07;4.10;;;0.30;99.90;;;;;;5012441;28;20068;-74
2023/02/27 03:08:14;;;;;;;6.55;2.90;;;0.30;99.90;;;;;;5016710;28;20126;-74
2023/02/27 03:10:48;;;;;;;9.45;3.28;;;0.20;99.90;;;;;;5015706;28;20030;-74
2023/02/27 03:13:18;;;;;;;11.88;3.45;;;0.20;99.90;;;;;;4996014;28;20021;-74
2023/02/27 03:15:53;;;;;;;8.27;3.13;;;0.20;99.90;;;;;;5016900;28;20018;-72
2023/02/27 03:18:27;;;;;;;14.25;2.90;;;0.20;99.90;;;;;;5015480;28;20270;-72
2023/02/27 03:21:25;;;;;;;13.80;3.95;;;0.20;99.90;;;;;;5014992;28;20409;-72
2023/02/27 03:23:55;;;;;;;8.95;3.38;;;0.20;99.90;;;;;;5017108;28;20041;-73
2023/02/27 03:26:31;;;;;;;8.20;3.03;;;0.20;99.90;;;;;;5030648;28;20029;-73
2023/02/27 03:29:15;;;;;;;10.55;3.58;;;0.20;99.90;;;;;;5032593;28;20293;-74
2023/02/27 03:31:59;;;;;;;7.90;3.15;;;0.20;99.90;;;;;;5020741;28;20025;-74
2023/02/27 03:34:32;;;;;;;10.30;3.17;;;0.20;99.90;;;;;;5016690;28;20029;-72
2023/02/27 03:37:19;;;;;;;9.57;3.05;;;0.20;99.90;;;;;;5015296;28;20032;-71
2023/02/27 03:39:54;;;;;;;10.60;3.78;;;0.20;99.90;;;;;;5015411;28;20025;-71
2023/02/27 03:42:33;;;;;;;5.65;2.78;;;0.20;99.90;;;;;;4999300;28;20370;-71
2023/02/27 03:45:07;;;;;;;7.60;3.42;;;0.20;99.90;;;;;;5015566;28;20528;-71
2023/02/27 03:47:34;;;;;;;8.00;3.58;;;0.20;99.90;;;;;;4995845;28;20117;-71
2023/02/27 03:50:00;;;;;;;6.80;3.50;;;0.10;99.90;;;;;;5016768;28;20099;-72
2023/02/27 03:52:28;;;;;;;7.97;3.35;;;0.10;99.90;;;;;;5012208;28;20021;-71
2023/02/27 03:55:14;;;;;;;7.82;3.40;;;0.10;99.90;;;;;;5014158;28;20025;-71
2023/02/27 03:57:41;;;;;;;10.85;3.20;;;0.10;99.90;;;;;;5014716;28;20393;-73
2023/02/27 04:00:13;;;;;;;9.23;3.75;;;0.10;99.90;;;;;;5013839;28;20080;-72
2023/02/27 04:02:40;;;;;;;7.97;3.35;;;0.10;99.90;;;;;;5016811;28;20053;-71
2023/02/27 04:05:07;;;;;;;9.40;3.67;;;0.10;99.90;;;;;;5014098;28;20531;-71
2023/02/27 04:07:51;;;;;;;9.05;3.10;;;0.10;99.90;;;;;;5016968;28;20504;-71
2023/02/27 04:10:43;;;;;;;8.57;2.88;;;0.10;99.90;;;;;;5017261;28;20450;-71
2023/02/27 04:13:40;;;;;;;7.93;3.67;;;0.10;99.90;;;;;;5017535;28;20032;-71
2023/02/27 04:16:28;;;;;;;9.95;3.75;;;0.10;99.90;;;;;;5014044;28;20545;-71
2023/02/27 04:19:06;;;;;;;7.75;3.60;;;0.00;99.90;;;;;;4970113;28;1254437;-71
2023/02/27 04:22:01;;;;;;;7.78;3.67;;;0.00;99.90;;;;;;5018679;28;20040;-72
2023/02/27 04:24:51;;;;;;;7.25;3.22;;;0.00;99.90;;;;;;5015945;28;20033;-71
2023/02/27 04:27:25;;;;;;;12.63;4.03;;;0.00;99.90;;;;;;5013959;28;20026;-71
2023/02/27 04:30:15;;;;;;;9.75;3.42;;;0.00;99.90;;;;;;5014118;28;20032;-72
2023/02/27 04:32:56;;;;;;;8.82;3.70;;;0.00;99.90;;;;;;5020147;28;20021;-74
2023/02/27 04:35:25;;;;;;;;;;;0.00;99.90;;;;;;5013091;28;20076;-73
2023/02/27 04:37:57;;;;;;;10.73;3.88;;;0.00;99.90;;;;;;5013745;28;20377;-74
2023/02/27 04:40:35;;;;;;;9.32;3.30;;;0.00;99.90;;;;;;5014721;28;20040;-76
2023/02/27 04:43:04;;;;;;;21.35;3.80;;;0.00;99.90;;;;;;5015793;28;20030;-73
2023/02/27 04:45:34;;;;;;;9.30;3.75;;;-0.10;99.90;;;;;;5016330;28;20128;-73
2023/02/27 04:48:08;;;;;;;9.77;3.95;;;-0.10;99.90;;;;;;5016715;28;20034;-74
2023/02/27 04:50:41;;;;;;;8.68;3.47;;;-0.10;99.90;;;;;;5015917;28;20413;-73
2023/02/27 04:53:39;;;;;;;9.23;3.40;;;-0.10;99.90;;;;;;5014235;28;20059;-72
2023/02/27 04:56:11;;;;;;;8.60;3.78;;;0.00;99.90;;;;;;5002301;28;20073;-72
2023/02/27 04:58:41;;;;;;;12.63;3.90;;;-0.10;99.90;;;;;;5018559;28;20028;-72
2023/02/27 05:01:12;;;;;;;10.90;3.97;;;-0.10;99.90;;;;;;5018241;28;20026;-72
2023/02/27 05:03:42;;;;;;;7.72;3.47;;;-0.10;99.90;;;;;;5004084;28;20092;-71
2023/02/27 05:06:10;;;;;;;9.20;4.22;;;-0.10;99.90;;;;;;5019034;28;20551;-72
2023/02/27 05:09:01;;;;;;;7.50;3.85;;;-0.10;99.90;;;;;;5020791;28;20045;-72
2023/02/27 05:12:16;;;;;;;6.03;3.10;;;-0.10;99.90;;;;;;5018100;28;20026;-71
2023/02/27 05:15:11;;;;;;;13.00;4.45;;;-0.10;99.90;;;;;;5015864;28;20077;-73
2023/02/27 05:17:46;;;;;;;8.75;3.92;;;-0.10;99.90;;;;;;5002607;28;20061;-73
2023/02/27 05:20:13;;;;;;;9.82;4.00;;;-0.10;99.90;;;;;;5027384;28;20517;-73
2023/02/27 05:22:47;;;;;;;7.82;3.70;;;-0.10;99.90;;;;;;5020605;28;20041;-74
2023/02/27 05:25:41;;;;;;;8.68;3.53;;;-0.10;99.90;;;;;;5018677;28;20034;-72
2023/02/27 05:28:18;;;;;;;11.05;4.30;;;-0.10;99.90;;;;;;5019229;28;20048;-74
2023/02/27 05:31:14;;;;;;;9.57;3.75;;;-0.10;99.90;;;;;;5015472;28;20036;-74
2023/02/27 05:34:01;;;;;;;9.15;4.43;;;-0.10;99.90;;;;;;5017830;28;20033;-71
2023/02/27 05:36:35;;;;;;;9.98;5.50;;;-0.10;99.90;;;;;;5017685;28;20626;-73
2023/02/27 05:39:08;;;;;;;11.32;3.88;;;-0.10;99.90;;;;;;5019978;28;20021;-71
2023/02/27 05:41:41;;;;;;;12.15;4.18;;;-0.10;99.90;;;;;;5015861;28;20116;-71
2023/02/27 05:44:16;;;;;;;8.45;3.90;;;-0.10;99.90;;;;;;5015660;28;20034;-72
2023/02/27 05:46:48;;;;;;;10.52;4.38;;;-0.10;99.90;;;;;;5015261;28;20112;-72
2023/02/27 05:49:21;;;;;;;9.68;4.00;;;-0.10;99.90;;;;;;5016587;28;20486;-74
2023/02/27 05:51:50;;;;;;;8.85;4.22;;;-0.10;99.90;;;;;;5016561;28;20087;-75
2023/02/27 05:54:28;;;;;;;9.80;4.70;;;-0.10;99.90;;;;;;5016449;28;20133;-72
2023/02/27 05:56:57;;;;;;;9.77;3.75;;;-0.10;99.90;;;;;;5017593;28;20025;-72
2023/02/27 05:59:46;;;;;;;9.57;4.50;;;-0.10;99.90;;;;;;5018280;28;20026;-72
2023/02/27 06:02:12;;;;;;;10.13;4.47;;;-0.10;99.90;;;;;;5015746;28;20039;-76
2023/02/27 06:04:39;;;;;;;7.43;4.30;;;-0.10;99.90;;;;;;5018690;28;20916;-75
2023/02/27 06:07:05;;;;;;;12.38;4.13;;;-0.10;99.90;;;;;;4997188;28;20033;-73
2023/02/27 06:09:32;;;;;;;7.80;4.07;;;-0.10;99.90;;;;;;5016039;28;20034;-75
2023/02/27 06:12:00;;;;;;;7.70;4.47;;;-0.10;99.90;;;;;;5015543;28;20080;-72
2023/02/27 06:14:26;;;;;;;9.25;4.65;;;-0.10;99.90;;;;;;5015065;28;20041;-73
2023/02/27 06:16:52;;;;;;;10.52;4.80;;;-0.10;99.90;;;;;;5027509;28;20030;-76
2023/02/27 06:19:17;;;;;;;9.45;5.10;;;-0.10;99.90;;;;;;5024354;28;20099;-72
2023/02/27 06:21:43;;;;;;;12.77;4.88;;;-0.10;99.90;;;;;;5017460;28;20037;-75
2023/02/27 06:24:09;;;;;;;8.90;4.80;;;-0.10;99.90;;;;;;5017737;28;20109;-72
2023/02/27 06:26:36;;;;;;;14.80;4.80;;;-0.10;99.90;;;;;;5012415;28;20030;-76
2023/02/27 06:29:01;;;;;;;10.23;4.90;;;-0.10;99.90;;;;;;4996676;28;20036;-75
2023/02/27 06:31:27;;;;;;;10.07;4.90;;;-0.10;99.90;;;;;;5014138;28;20677;-71
2023/02/27 06:33:54;;;;;;;13.95;5.47;;;-0.10;99.90;;;;;;5012247;28;20100;-75
2023/02/27 06:36:22;;;;;;;9.50;4.72;;;-0.10;99.90;;;;;;5018045;28;20132;-74
2023/02/27 06:38:48;;;;;;;10.02;4.15;;;-0.10;99.90;;;;;;5020031;28;20026;-74
2023/02/27 06:41:14;;;;;;;11.52;5.20;;;-0.10;99.90;;;;;;5019772;28;20088;-71
2023/02/27 06:43:40;;;;;;;10.25;5.47;;;0.00;99.90;;;;;;5013413;28;20117;-71
2023/02/27 06:46:06;;;;;;;11.60;4.13;;;0.00;99.90;;;;;;5017146;28;21016;-71
2023/02/27 06:48:32;;;;;;;11.35;5.63;;;0.40;99.90;;;;;;5019232;28;20034;-71
2023/02/27 06:50:58;;;;;;;10.73;5.13;;;0.40;99.90;;;;;;5018509;28;20029;-72
2023/02/27 06:53:24;;;;;;;13.80;5.50;;;0.30;99.90;;;;;;5014963;28;20029;-71
2023/02/27 06:55:51;;;;;;;13.38;5.80;;;0.20;99.90;;;;;;5014839;28;20034;-72
2023/02/27 06:58:16;;;;;;;11.10;5.30;;;0.20;99.90;;;;;;5016067;28;20026;-73
2023/02/27 07:00:42;;;;;;;12.80;5.82;;;0.20;99.90;;;;;;5014297;28;20087;-75
2023/02/27 07:03:09;;;;;;;10.30;5.03;;;0.20;99.90;;;;;;5014450;28;20572;-74
2023/02/27 07:05:35;;;;;;;17.67;5.50;;;0.20;99.90;;;;;;5017803;28;20494;-74
2023/02/27 07:08:02;;;;;;;9.60;5.22;;;0.20;99.90;;;;;;4996966;28;20041;-75
2023/02/27 07:10:29;;;;;;;15.48;6.30;;;0.20;99.90;;;;;;5018536;28;20037;-74
2023/02/27 07:12:54;;;;;;;14.50;6.20;;;0.20;99.90;;;;;;5017161;28;20073;-73
2023/02/27 07:15:20;;;;;;;10.93;5.25;;;0.20;99.90;;;;;;5029687;28;20041;-73
2023/02/27 07:17:46;;;;;;;10.18;5.25;;;0.20;99.90;;;;;;5041077;28;20029;-74
2023/02/27 07:20:12;;;;;;;14.05;6.03;;;0.30;99.90;;;;;;5025840;28;20035;-74
2023/02/27 07:22:38;;;;;;;13.38;7.03;;;0.30;99.90;;;;;;5017989;28;20168;-74
2023/02/27 07:25:05;;;;;;;8.55;4.95;;;0.30;99.90;;;;;;5015353;28;20083;-75
2023/02/27 07:27:30;;;;;;;10.25;5.35;;;0.30;99.90;;;;;;5018636;28;20026;-75
2023/02/27 07:29:56;;;;;;;8.70;4.97;;;0.30;99.90;;;;;;5011137;28;20026;-74
2023/02/27 07:32:22;;;;;;;9.77;5.25;;;0.40;99.90;;;;;;5015456;28;20546;-74
2023/02/27 07:34:48;;;;;;;11.43;5.20;;;0.50;99.90;;;;;;5019611;28;20029;-77
2023/02/27 07:37:14;;;;;;;11.60;5.50;;;0.40;99.90;;;;;;4999791;28;20021;-76
2023/02/27 07:39:40;;;;;;;11.60;6.25;;;0.50;99.90;;;;;;5002219;28;20026;-75
2023/02/27 07:42:06;;;;;;;12.45;6.32;;;0.50;99.90;;;;;;5020563;28;20026;-74
2023/02/27 07:44:32;;;;;;;10.95;6.35;;;0.60;99.90;;;;;;4999922;28;20071;-74
2023/02/27 07:46:58;;;;;;;16.42;6.25;;;0.50;99.90;;;;;;4999483;28;20069;-74
2023/02/27 07:49:24;;;;;;;12.60;6.03;;;0.50;99.90;;;;;;5019907;28;20493;-74
2023/02/27 07:51:50;;;;;;;13.48;6.82;;;0.60;99.90;;;;;;5020538;28;20029;-74
2023/02/27 07:54:16;;;;;;;10.15;5.55;;;0.60;99.90;;;;;;5016434;28;20032;-74
2023/02/27 07:56:41;;;;;;;11.07;6.32;;;0.60;99.90;;;;;;5017649;28;20021;-74
2023/02/27 07:59:07;;;;;;;14.10;5.50;;;0.70;99.90;;;;;;5019083;28;20025;-74
2023/02/27 08:01:34;;;;;;;18.30;6.47;;;0.70;99.90;;;;;;5023411;28;20095;-74
2023/02/27 08:04:01;;;;;;;16.70;6.13;;;0.80;99.90;;;;;;5019140;28;20040;-78
2023/02/27 08:06:29;;;;;;;11.88;6.13;;;0.80;99.90;;;;;;5004476;28;20562;-74
2023/02/27 08:08:56;;;;;;;12.93;6.53;;;0.80;99.90;;;;;;5003329;28;20029;-75
2023/02/27 08:11:22;;;;;;;10.23;5.25;;;0.90;99.90;;;;;;5003065;28;20484;-72
2023/02/27 08:13:48;;;;;;;18.55;7.03;;;0.90;99.90;;;;;;5017166;28;20013;-74
2023/02/27 08:16:14;;;;;;;12.90;6.05;;;1.00;99.90;;;;;;5015272;28;20401;-74
2023/02/27 08:18:40;;;;;;;16.58;6.07;;;1.00;99.90;;;;;;5016931;28;20105;-77
2023/02/27 08:21:07;;;;;;;11.50;5.72;;;1.10;99.90;;;;;;5016663;28;20038;-74
2023/02/27 08:23:33;;;;;;;13.80;5.85;;;1.10;99.90;;;;;;4995239;28;20971;-76
2023/02/27 08:26:00;;;;;;;10.07;5.20;;;1.10;99.90;;;;;;5011679;28;20036;-74
2023/02/27 08:28:26;;;;;;;12.68;6.05;;;1.10;99.90;;;;;;5016498;28;20726;-73
2023/02/27 08:30:53;;;;;;;12.45;5.65;;;1.20;99.90;;;;;;5016769;28;20057;-75
2023/02/27 08:33:20;;;;;;;8.85;5.40;;;1.30;99.90;;;;;;5020656;28;20053;-75
2023/02/27 08:35:46;;;;;;;10.52;4.95;;;1.30;99.90;;;;;;5021590;28;20055;-75
2023/02/27 08:38:12;;;;;;;12.63;5.95;;;1.30;99.90;;;;;;5018083;28;20026;-74
2023/02/27 08:40:38;;;;;;;11.63;5.20;;;1.40;99.90;;;;;;5014565;28;20038;-74
2023/02/27 08:43:03;;;;;;;15.40;6.43;;;1.40;99.90;;;;;;5012766;28;20033;-74
2023/02/27 08:45:29;;;;;;;12.23;5.22;;;1.50;99.90;;;;;;5011318;28;20034;-73
2023/02/27 08:47:55;;;;;;;12.98;5.80;;;1.50;99.90;;;;;;5015629;28;20030;-73
2023/02/27 08:50:21;;;;;;;14.73;5.20;;;1.60;99.90;;;;;;5016975;28;20036;-73
2023/02/27 08:52:48;;;;;;;11.40;5.38;;;1.70;99.90;;;;;;5015997;28;20025;-75
2023/02/27 08:55:14;;;;;;;15.75;5.40;;;1.70;99.90;;;;;;5011418;28;20260;-74
2023/02/27 08:57:39;;;;;;;10.15;4.68;;;1.70;99.90;;;;;;5008479;28;20028;-74
2023/02/27 09:00:07;;;;;;;17.52;5.70;;;1.80;99.90;;;;;;5014545;28;20029;-74
2023/02/27 09:02:33;;;;;;;15.18;5.20;;;1.90;99.90;;;;;;5014574;28;20026;-73
2023/02/27 09:05:00;;;;;;;11.43;4.68;;;1.90;99.90;;;;;;5017809;28;20033;-73
2023/02/27 09:07:25;;;;;;;10.13;3.75;;;2.00;99.90;;;;;;5017169;28;20040;-74
2023/02/27 09:09:51;;;;;;;11.05;4.05;;;2.10;99.90;;;;;;5018460;28;20477;-74
2023/02/27 09:12:17;;;;;;;8.30;3.53;;;2.10;99.90;;;;;;5016725;28;20033;-73
2023/02/27 09:14:42;;;;;;;8.90;3.70;;;2.10;99.90;;;;;;5014570;28;20032;-73
2023/02/27 09:17:08;;;;;;;9.27;3.30;;;2.10;99.90;;;;;;5015718;28;20608;-71
2023/02/27 09:19:35;;;;;;;8.80;3.75;;;2.10;99.90;;;;;;5017863;28;20034;-72
2023/02/27 09:22:00;;;;;;;10.93;3.65;;;2.30;99.90;;;;;;5000641;28;20030;-72
2023/02/27 09:24:26;;;;;;;13.35;3.15;;;2.30;99.90;;;;;;5016897;28;20029;-72
2023/02/27 09:26:52;;;;;;;7.72;3.25;;;2.40;99.90;;;;;;5019746;28;20034;-72
2023/02/27 09:29:18;;;;;;;8.35;3.50;;;2.40;99.90;;;;;;5016088;28;20097;-74
2023/02/27 09:31:43;;;;;;;5.55;2.50;;;2.40;99.90;;;;;;5015842;28;20396;-75
2023/02/27 09:34:09;;;;;;;7.68;2.10;;;2.40;99.90;;;;;;5017441;28;20064;-74
2023/02/27 09:36:35;;;;;;;4.93;2.25;;;2.50;99.90;;;;;;5018543;28;20035;-72
2023/02/27 09:39:01;;;;;;;6.25;1.95;;;2.50;99.90;;;;;;5016184;28;20029;-73
2023/02/27 09:41:54;;;;;;;5.20;2.13;;;2.60;99.90;;;;;;5017275;28;20025;-73
2023/02/27 09:44:47;;;;;;;5.65;2.35;;;2.60;99.90;;;;;;5022576;28;20035;-73
2023/02/27 09:47:28;;;;;;;10.10;1.90;;;2.70;99.90;;;;;;5020287;28;20061;-74
2023/02/27 09:50:02;;;;;;;5.53;1.60;;;2.80;99.90;;;;;;5023646;28;20026;-74
2023/02/27 09:52:31;;;;;;;5.28;1.48;;;2.80;99.90;;;;;;5021347;28;20465;-74
2023/02/27 09:54:56;;;;;;;7.63;1.67;;;2.90;99.90;;;;;;5020057;28;20101;-73
2023/02/27 09:57:53;;;;;;;3.95;1.65;;;3.00;99.90;;;;;;5018816;28;20125;-73
2023/02/27 10:00:40;;;;;;;6.40;1.63;;;3.10;99.90;;;;;;5017616;28;20088;-73
2023/02/27 10:03:32;;;;;;;4.18;1.20;;;3.40;99.90;;;;;;5020879;28;20025;-74
2023/02/27 10:06:09;;;;;;;5.07;1.13;;;3.80;99.90;;;;;;4994699;28;20370;-72
2023/02/27 10:08:51;;;;;;;8.15;1.40;;;4.40;99.90;;;;;;5019838;28;20037;-72
2023/02/27 10:11:31;;;;;;;3.95;1.40;;;4.80;99.90;;;;;;5019426;28;20117;-73
2023/02/27 10:14:01;;;;;;;4.18;1.55;;;5.40;97.80;;;;;;5020069;28;20360;-73
2023/02/27 10:16:31;;;;;;;3.65;1.45;;;5.60;97.80;;;;;;5016997;28;20381;-72
2023/02/27 10:19:01;;;;;;;14.52;5.63;;;5.80;94.50;;;;;;5019332;28;20453;-73
2023/02/27 10:21:43;;;;;;;4.38;1.63;;;6.30;95.20;;;;;;5019897;28;20034;-74
2023/02/27 10:24:17;;;;;;;2.33;1.08;;;6.90;91.90;;;;;;5018661;28;20087;-73
2023/02/27 10:26:44;;;;;;;5.50;1.88;;;7.70;91.20;;;;;;5019829;28;20402;-75
2023/02/27 10:29:32;;;;;;;3.28;1.17;;;7.40;85.10;;;;;;5019468;28;20045;-74
2023/02/27 10:32:29;;;;;;;5.05;1.80;;;8.40;83.30;;;;;;5015557;28;20064;-75
2023/02/27 10:35:26;;;;;;;8.75;2.55;;;9.40;72.10;;;;;;5017996;28;20033;-75
2023/02/27 10:37:59;;;;;;;7.70;1.77;;;8.30;73.80;;;;;;5021223;28;20033;-75
2023/02/27 10:40:27;;;;;;;3.78;1.55;;;8.10;74.50;;;;;;5013358;28;20076;-73
2023/02/27 10:42:55;;;;;;;6.38;1.67;;;8.30;76.70;;;;;;5015555;28;20030;-73
2023/02/27 10:45:21;;;;;;;5.28;1.90;;;8.90;73.00;;;;;;5019454;28;20026;-73
2023/02/27 10:47:46;;;;;;;6.88;1.70;;;8.10;71.70;;;;;;5026639;28;20018;-73
2023/02/27 10:50:31;;;;;;;4.55;1.42;;;7.40;74.40;;;;;;5020435;28;20029;-73
2023/02/27 10:53:00;;;;;;;5.25;1.33;;;7.50;76.20;;;;;;5020690;28;20788;-73
2023/02/27 10:55:57;;;;;;;6.97;1.58;;;8.40;73.40;;;;;;5001805;28;20032;-73
2023/02/27 10:58:23;;;;;;;3.97;1.40;;;8.70;72.10;;;;;;5016101;28;20038;-73
2023/02/27 11:00:57;;;;;;;4.75;1.65;;;8.00;72.00;;;;;;5021649;28;20243;-73
2023/02/27 11:03:31;;;;;;;5.80;2.10;;;8.10;75.00;;;;;;5019382;28;20052;-73
2023/02/27 11:06:03;;;;;;;5.30;2.22;;;8.30;74.60;;;;;;5019525;28;20113;-73
2023/02/27 11:08:31;;;;;;;5.78;1.73;;;7.40;71.60;;;;;;5002673;28;20033;-73
2023/02/27 11:11:06;;;;;;;7.68;2.00;;;6.90;77.00;;;;;;5016512;28;20121;-74
2023/02/27 11:13:36;;;;;;;5.75;2.00;;;6.70;78.20;;;;;;5018744;28;20510;-74
2023/02/27 11:16:05;;;;;;;5.68;1.73;;;6.50;80.10;;;;;;5018183;28;20030;-75
2023/02/27 11:18:31;;;;;;;5.85;1.67;;;6.40;81.00;;;;;;5016742;28;20033;-75
2023/02/27 11:21:21;;;;;;;6.50;1.88;;;6.40;81.60;;;;;;5027718;28;20041;-75
2023/02/27 11:23:57;;;;;;;6.30;2.00;;;6.50;83.20;;;;;;5018573;28;20041;-75
2023/02/27 11:26:27;;;;;;;5.63;1.63;;;6.30;83.20;;;;;;4999772;28;20187;-75
2023/02/27 11:29:04;;;;;;;4.45;1.70;;;6.70;83.40;;;;;;5019809;28;20033;-75
2023/02/27 11:31:32;;;;;;;4.70;1.77;;;7.00;81.40;;;;;;5007731;28;20022;-76
2023/02/27 11:33:59;;;;;;;5.47;1.85;;;6.60;82.70;;;;;;5023087;28;20061;-75
2023/02/27 11:36:46;;;;;;;5.00;1.60;;;6.60;86.00;;;;;;5016572;28;20039;-75
2023/02/27 11:39:21;;;;;;;6.18;1.80;;;6.80;87.30;;;;;;5000149;28;20080;-75
2023/02/27 11:41:47;;;;;;;6.05;1.70;;;6.50;87.80;;;;;;5017972;28;20079;-75
2023/02/27 11:44:19;;;;;;;3.58;1.83;;;6.50;88.00;;;;;;5017110;28;20470;-75
2023/02/27 11:46:45;;;;;;;;;;;6.50;87.80;;;;;;5020386;28;20037;-75
2023/02/27 11:49:33;;;;;;;4.32;1.38;;;6.30;91.10;;;;;;5017913;28;19994;-75
2023/02/27 11:52:08;;;;;;;4.38;1.30;;;6.20;91.70;;;;;;5001629;28;20025;-74
2023/02/27 11:54:56;;;;;;;5.32;1.80;;;6.20;91.10;;;;;;5018039;28;20401;-74
2023/02/27 11:57:33;;;;;;;3.30;1.52;;;6.30;90.70;;;;;;5016978;28;20033;-75
2023/02/27 12:00:24;;;;;;;5.60;2.10;;;6.30;90.40;;;;;;5017289;28;20028;-73
2023/02/27 12:03:09;;;;;;;;;;;6.20;91.60;;;;;;5017951;28;20045;-73
2023/02/27 12:05:46;;;;;;;3.72;1.15;;;6.30;91.20;;;;;;5018317;28;19905;-73
2023/02/27 12:08:44;;;;;;;2.50;1.38;;;6.30;83.90;;;;;;5001649;28;20052;-74
2023/02/27 12:11:35;;;;;;;3.15;1.25;;;6.10;84.60;;;;;;5016693;28;20108;-72
2023/02/27 12:14:07;;;;;;;3.40;1.73;;;6.50;86.30;;;;;;5015284;28;20048;-75
2023/02/27 12:16:38;;;;;;;6.00;2.17;;;6.40;84.80;;;;;;5014437;28;20034;-75
2023/02/27 12:19:10;;;;;;;;;;;6.20;87.20;;;;;;5022819;28;20041;-75
2023/02/27 12:21:42;;;;;;;4.97;1.92;;;6.10;86.40;;;;;;5017455;28;19921;-77
2023/02/27 12:24:08;;;;;;;6.20;1.83;;;5.90;89.30;;;;;;5017042;28;20022;-75
2023/02/27 12:26:43;;;;;;;8.52;1.77;;;6.00;88.40;;;;;;5016476;28;20030;-74
2023/02/27 12:29:30;;;;;;;4.18;1.75;;;6.00;91.60;;;;;;5019007;28;20499;-75
2023/02/27 12:32:27;;;;;;;5.90;1.80;;;6.20;91.40;;;;;;5018772;28;20164;-74
2023/02/27 12:35:11;;;;;;;335.48;142.25;;;6.40;91.70;;;;;;5017437;28;20027;-75
2023/02/27 12:37:37;;;;;;;191.25;92.55;;;6.40;92.10;;;;;;5016142;28;20033;-74
2023/02/27 12:40:11;;;;;;;168.32;93.28;;;6.20;92.30;;;;;;5018128;28;20192;-75
2023/02/27 12:42:49;;;;;;;7.82;3.80;;;6.20;92.90;;;;;;5015198;28;20022;-76
2023/02/27 12:45:25;;;;;;;6.63;2.47;;;6.30;93.10;;;;;;5003110;28;20022;-75
2023/02/27 12:48:13;;;;;;;7.40;2.00;;;6.30;94.00;;;;;;4998612;28;20106;-72
2023/02/27 12:50:54;;;;;;;6.13;1.88;;;6.30;94.00;;;;;;5014817;28;20036;-72
2023/02/27 12:53:40;;;;;;;7.10;1.98;;;6.30;94.20;;;;;;5016720;28;20025;-73
2023/02/27 12:56:14;;;;;;;8.45;2.55;;;6.50;94.30;;;;;;5015029;28;20565;-72
2023/02/27 12:59:24;;;;;;;4.57;1.85;;;6.00;94.70;;;;;;5016028;28;20036;-73
2023/02/27 13:02:02;;;;;;;3.72;1.20;;;5.90;94.90;;;;;;5019433;28;20033;-75
2023/02/27 13:04:57;;;;;;;5.47;1.70;;;5.80;93.40;;;;;;5028796;28;20030;-76
2023/02/27 13:07:51;;;;;;;4.28;1.15;;;5.70;91.60;;;;;;5008197;28;20095;-77
2023/02/27 13:10:29;;;;;;;5.18;1.60;;;5.60;89.10;;;;;;4998611;28;20367;-76
2023/02/27 13:13:05;;;;;;;3.35;1.10;;;5.50;88.60;;;;;;5016438;28;20133;-76
2023/02/27 13:15:50;;;;;;;5.25;1.40;;;5.50;89.50;;;;;;5000714;28;20018;-76
2023/02/27 13:18:29;;;;;;;3.40;1.17;;;5.60;86.60;;;;;;5026797;28;20025;-75
2023/02/27 13:21:19;;;;;;;1.67;1.00;;;5.60;86.50;;;;;;5021731;28;20251;-75
2023/02/27 13:24:12;;;;;;;3.92;0.98;;;5.70;86.10;;;;;;5019902;28;20025;-75